CheckWX is a tool to help pilots better visualize weather data.  It is not intended as a substitute for an official pre-flight weather briefing.

17:40:32 UTC

EGLC TAF
London City Airport
London, United Kingdom
TAF EGLC 070756Z 0709/0718 24008KT 9999 SCT035

Dec-7@
09:00 UTC

Dec-7 @ 09:00 UTC

Dec-7@
18:00 UTC

Dec-7 @ 18:00 UTC

TAF EGLC 070756Z 0709/0718 24008KT 9999 SCT035
Wind
  • 240° at 8 KTS
Cloud Levels
  • Scattered at 3,500' AGL